METAR

RPLL (MNL) – NINOY AQUINO INTERNATIONAL AIRPORT (MANILA INTERNATIONAL AIRPORT

METAR RPLL 041300Z 11006KT 070V170 9999 FEW023 BKN100 25/21 Q1014 NOSIG RMK A2994=
METAR RPLL 041200Z 10005KT 070V150 9999 SCT023 BKN100 25/20 Q1014 NOSIG RMK A2994=
METAR RPLL 041100Z 10006KT 070V140 9999 SCT023 BKN100 26/20 Q1013 NOSIG RMK A2991=
METAR RPLL 041000Z 11005KT 060V150 9999 SCT023 BKN100 26/20 Q1012 NOSIG RMK A2988=
METAR RPLL 040900Z 10008KT 070V140 9999 SCT023  BKN100 27/20 Q1012 NOSIG RMK A2988=
METAR RPLL 040800Z 11010KT 080V160 9999 SCT023 BKN100 28/21 Q1011 NOSIG RMK A2985=
METAR RPLL 040700Z 11010KT 080V160 9999 SCT023 BKN100 29/21 Q1011 NOSIG RMK A2985=
METAR RPLL 040600Z 11011KT 080V160 9999 SCT023 SCT100 29/20 Q1011 NOSIG RMK A2985=
METAR RPLL 040500Z 07011KT 030V120 9999 SCT023 SCT100 30/20 Q1012 NOSIG RMK A2988=
METAR RPLL 040400Z  10009KT 060V160 9999 FEW025 SCT300 31/21 Q1013 NOSIG RMK A2991=
METAR RPLL 040300Z 08008KT 030V130 9999 FEW025 30/21 Q1013 NOSIG RMK A2991=
METAR RPLL 040200Z 08006KT 040V190 9999 FEW025 29/20 Q1014 NOSIG RMK A2994=
METAR RPLL 040100Z VRB03KT 9999 FEW025 28/20 Q1014 NOSIG RMK A2994=
METAR RPLL 040000Z VRB02KT 9999 FEW025 26/20 Q1014 NOSIG RMK A2994=
METAR RPLL 032300Z 26003KT 9999 FEW025 24/21 Q1013 NOSIG RMK A2991=
METAR RPLL 032200Z VRB03KT 9999 FEW025 23/20 Q1012 NOSIG RMK A2988=
METAR RPLL 032100Z VRB02KT 9999 FEW025 24/20 Q1011 NOSIG RMK A2985=
METAR RPLL 032000Z 10003KT 070V130 9999 FEW025 24/20 Q1011 NOSIG RMK A2985=
METAR RPLL 031900Z 10003KT 030V150 9999 FEW025 25/20 Q1012 NOSIG RMK A2988=
METAR RPLL 031800Z 12005KT 070V180 9999 FEW025 25/20 Q1012 NOSIG RMK A2988=
METAR RPLL 031700Z 11004KT 030V170 9999 FEW025 25/20 Q1013 NOSIG RMK A2991=
METAR RPLL 031600Z 10005KT 060V150 9999 FEW025 26/20 Q1014 NOSIG RMK A2994=
METAR RPLL 031500Z 13004KT 080V200 9999 FEW025 SCT100 26/20 Q1014 NOSIG RMK A2994=
METAR RPLL 031400Z 10004KT 060V140 9999 FEW025 SCT100 26/19 Q1014 NOSIG RMK A2994=
METAR RPLL 031300Z 11004KT 060V150 9999 FEW025 SCT100 26/19 Q1014 NOSIG RMK A2994=
METAR RPLL 031200Z 11006KT 060V150 9999 FEW025 BKN100 27/19 Q1013 NOSIG RMK A2991=
METAR RPLL 031100Z 10005KT 060V130 9999 FEW025 BKN300 27/20 Q1013 NOSIG RMK A2991=
METAR RPLL 031000Z 09007KT 060V130 9999 FEW025 SCT300 27/19 Q1012 NOSIG RMK A2988=
METAR RPLL 030900Z 09010KT 060V130 9999 FEW025 BKN300 29/19 Q1011 NOSIG RMK A2985=
METAR RPLL 030800Z 08011KT 050V110 9999 FEW025 BKN300 30/19 Q1010 NOSIG RMK A2983=
METAR RPLL 030700Z 09010KT 070V130 9999 FEW015 BKN100 30/19 Q1010 NOSIG RMK A2983=
METAR RPLL 030600Z 08009KT 060V140 9999 SCT025 BKN100 30/19 Q1010 NOSIG RMK A2983= 
METAR RPLL 030500Z 12006KT 060V180 9999 FEW030 31/20 Q1011 NOSIG RMK A2985=
METAR RPLL 030400Z VRB05KT 9999 FEW030 SCT300 31/20 Q1012 NOSIG RMK A2988=
METAR RPLL 030300Z VRB05KT 9999 FEW030 30/21 Q1013 NOSIG RMK A2991=
METAR RPLL 030200Z 13005KT 050V210 9999 FEW025 SCT300 29/20 Q1013 NOSIG RMK A2991=
METAR RPLL 030100Z 05004KT 010V170 9999 FEW025 SCT300 28/20 Q1013 NOSIG RMK A2991=
METAR RPLL 030000Z 05003KT 340V090 9999 FEW025 27/20 Q1013 NOSIG RMK A2991=
METAR RPLL 022300Z 01005KT 9999 FEW025 SCT300 25/20 Q1012 NOSIG RMK A2988=
METAR RPLL 022200Z VRB01KT 9999 FEW025 24/20 Q1011 NOSIG RMK A2985=
METAR RPLL 022100Z 07004KT 040V110 9999 FEW025 24/19 Q1011 NOSIG RMK A2985=
METAR RPLL 022000Z 09004KT 050V140 9999 FEW025 SCT300 25/19 Q1010 NOSIG RMK A2983=
METAR RPLL 021900Z 12003KT 9999 SCT025 SCT100 25/20 Q1011 NOSIG RMK A2985=
METAR RPLL 021800Z 09003KT 070V140 9999 FEW025 SCT100 25/19 Q1012 NOSIG RMK A2988=
METAR RPLL 021700Z VRB02KT 9999 FEW025 SCT100 26/20 Q1012 NOSIG RMK A2988=
METAR RPLL 021600Z VRB01KT 9999 FEW025 25/19 Q1012 NOSIG RMK A2988=
METAR RPLL 021500Z 09005KT 070V130 9999 FEW030 26/19 Q1012 NOSIG RMK A2988=
METAR RPLL 021400Z 12004KT 080V190 9999 FEW030 26/20 Q1013 NOSIG RMK A2991=
METAR RPLL 021300Z 10005KT 070V170 9999 FEW030 27/20 Q1012 NOSIG RMK A2988=
METAR RPLL 021200Z 11005KT 050V180 9999 FEW030 27/20 Q1012 NOSIG RMK A2985=
METAR RPLL 021100Z 11005KT 070V170 9999 FEW030 27/20 Q1011 NOSIG RMK A2985=
METAR RPLL 021000Z 10008KT 070V130 9999 FEW025 BKN290 28/19 Q1010 NOSIG RMK A2983=
METAR RPLL 020900Z 09008KT 070V130 9999 FEW025 BKN290 29/20 Q1009 NOSIG RMK A2980=
METAR RPLL 020800Z 10009KT 070V130 9999 SCT023 SCT100 29/19 Q1009 NOSIG RMK A2980=
METAR RPLL 020700Z 10008KT 9999 SCT023 SCT100 30/19 Q1009  NOSIG RMK A2980=
METAR RPLI 020600Z 07009KT 9999 SCT023 BKN100 30/20 1009 NOSIG RMK A2980=
METAR RPLL 020500Z 10009KT 060V170 9999 FEW025 SCT300 31/20 1009 NOSIG RMK A2980=
METAR RPLL 020400Z 10009KT 060V170 9999 FEW025 SCT300 31/20 Q1011 NOSIG RMK A2985=
METAR RPLL 020300Z VRB05KT 9999 FEW025 SCT300 30/20 Q1011 NOSIG RMK A2985=
METAR RPLL 020200Z 32006KT 290V350 9999 FEW023 SCT300 29/21 Q1012 NOSIG RMK A2988=
METAR RPLL 020100Z VRB07KT 9999 FEW025 BKN300 29/20 Q1012 NOSIG RMK A2988=
METAR RPLL 020000Z 00000KT 9999 FEW025 BKN300 28/21 Q1012 NOSIG RMK A2988=

 

RPVM (CEB) – MACTAN-CEBU INTERNATIONAL AIRPORT

METAR RPVM  041300Z 01010KT 9999 FEW020 BKN100 27/22 Q1012 RMK A2988=
METAR RPVM 041200Z 36010KT 9999 FEW020 BKN100 27/22  Q1012 RMK A2988=
METAR RPVM 041100Z 36011KT 9999 FEW020 BKN100 28/22 Q1011 RMK A2985=
METAR RPVM 041000Z 06009KT 030V090 9999 SCT020 26/19 Q1013 NOSIG RMK A2991=
METAR RPVM 040900Z 02014KT 9999 FEW020 BKN100 29/23 Q1010 RMK A2983= 
METAR RPVM 040800Z 04012KT 9999 FEW020 BKN100 29/22 Q1009 RMK A2980=
METAR RPVM 040700Z 04012KT 9999 FEW020 BKN100 30/21 Q1009 RMK A2980=
METAR RPVM 040600Z 04014KT 9999 FEW020 SCT100 31/21 Q1010 RMK A2983=
METAR RPVM 040500Z 03016KT 9999 FEW020 SCT300 31/22 Q1010 RMK A2983=
METAR RPVM 040400Z 03014KT 9999 FEW020 31/22 Q1011 RMK A2985=
METAR RPVM 040300Z 02015KT 9999 FEW020 30/21 Q1012 RMK A2988=
METAR RPVM 040200Z 02015KT 9999 FEW020 30/21 Q1012 RMK A2988=
METAR RPVM 040100Z 03017KT 9999 FEW020 29/22 Q1012 RMK A2988=
METAR RPVM 040000Z 01013KT 9999 FEW020 28/22 Q1012 RMK A2988=
METAR RPVM 032300Z 36009KT 9999 FEW020 26/21 Q1012 RMK A2988=
METAR RPVM 032200Z 35007KT 9999 FEW020 SCT300 25/21 Q1011 RMK A2985=
METAR RPVM 032100Z 35008KT 9999 FEW020 25/21 Q1011 RMK A2985=
METAR RPVM 032000Z 34006KT 9999 FEW020 25/21 Q1011 RMK A2985=
METAR RPVM 031900Z 34006KT 9999 FEW020 25/21 Q1011 RMK A2985=
METAR RPVM 031800Z 34008KT 9999 FEW020 SCT100 25/21 Q1011 RMK A2985=
METAR RPVM 031700Z 35005KT 9999 FEW020 BKN100 26/21 Q1012 RMK A2988=
METAR RPVM 031600Z 04006KT 350V060 9999 FEW020 OVC100 26/21 Q1013 RMK A2991=
METAR RPVM 031500Z 03011KT 9999 FEW020 BKN100 27/21 Q1014 RMK A2994=
METAR RPVM 031400Z 03017KT 9999 FEW020 27/21 Q1013 RMK A2991=
METAR RPVM 031200Z 03014KT 9999 FEW020 BKN100 28/21 Q10114 RMK A2994=
METAR RPVM 031200Z 04013KT 9999 FEW020 BKN100 27/22 Q1013 RMK  A2991=
METAR RPVM 031100Z 04013KT 9999 FEW020 OVC100 27/23 Q1013 RMK A2991=
METAR RPVM 031000Z 01013KT 9999 FEW020 OVC100 28/22 Q1012 RMK A2988=
METAR RPVM 030900Z 01016KT 9999 FEW020 OVC100 28/22 Q1011 RMK A2985=
METAR RPVM 030800Z 01011KT 9999 FEW020 OVC100 28/22 Q1010 RMK A2983=
METAR RPVM 030700Z 01011KT 9999 SCT020 OVC100 28/22 Q1010 RMK A2983=
METAR RPVM 030600Z 02016KT 9999 SCT020 OVC100 28/24 Q1010 RMK A2983=
METAR RPVM 030500Z 02010KT 9999 SCT020 OVC1100 28/23 Q1011 RMK A2985=
METAR RPVM 030400Z 01013KT 9999 SCT020 OVC100 29/22 Q1011 RMK A2985= 
METAR RPVM 030300Z 36011KT 9999 SCT020 OVC100 29/23 Q1012 RMK A2988=
METAR RPVM 030200Z 02014KT 9999 SCT020 OVC100 29/22 Q1012 RMK A2988=
METAR RPVM 030100Z 36012KT 9999 SCT020 OVC100 28/22 Q1012 RMK A2988=
METAR RPVM 030000Z 01013KT 9999 FEW020 SCT100 BKN250 28/22 Q1012 RMK A2991=
METAR RPVM 022300Z 01011KT 9999 FEW020 BKN100 27/22 Q1011 RMK A2985=
METAR RPVM 022200Z 36009KT 9999 FEW020 BKN100 27/22 Q1010 RMK A2983=
METAR RPVM 022100Z 36006KT 9999 FEW020 BKN100 26/22 Q1009 RMK A2980=
METAR RPVM 022000Z 36007KT 300V020 9999 FEW020 BKN100 27/22 Q1009 RMK A2980=
METAR RPVM 021900Z 01010KT 9999 FEW020 BKN100 27/22 Q1009 RMK A2980=
METAR RPVM 021800Z 01010KT 9999 FEW020 BKN100 27/22 Q1009 RMK A2980=
METAR RPVM 021700Z 36009KT 9999 FEW018CB BKN100 27/23 Q1010 RMK A2983 CB SE W/ OCNL LTG=
METAR RPVM 021600Z 01004KT 9999 FEW018CB BKN100 27/23 Q1011 RMK A2985 CB SE W/ OCNL LTG=
METAR RPVM 021500Z 01008KT 9999 FEW018CB BKN100 28/23 Q1011 RMK A2985 CB SE=
METAR RPVM 021400Z 36010KT 9999 FEW020 OVC100 28/23 Q1011 RMK A2985=
METAR RPVM 021300Z 01008KT 9999 FEW020 BKN100 28/23 Q1011 RMK A2985=
METAR RPVM 021200Z 35007KT 9999 FEW020 OVC100 28/23 Q1011 RMK A2985=
METAR RPVM 021100Z 36007KT 9999 FEW020 OVC100 28/23 Q1010 RMK A2983=
METAR RPVM 021000Z 01012KT 9999 FEW020 OVC100 28/23 Q1009 RMK A2980=
METAR RPVM 020900Z 36009KT 9999 FEW020 OVC100 29/23 Q1008 RMK A2977=
METAR RPVM 020800Z 01014KT 9999 SCT020 BKN100 30/22 Q1008 RMK A2977=
METAR RPVM 020700Z 01012KT 9999 SCT020 BKN100 30/23 Q1007 RMK A2974=
METAR RPVM 020600Z 34014KT 9999 SCT020 BKN100 29/23 Q1008 RMK A2977=
METAR RPVM 020500Z 02014KT 9999 FEW018CB SCT020 BKN250 31/22 Q1008 RMK A2977 CB S,SW,W=
METAR RPVM 020400Z 01012KT 9999 SCT020 BKN250 32/23 Q1009 RMK A2980=
METAR RPVM 020300Z 02009KT 330V060 9999 SCT020 BKN250 31/23 Q1009 RMK A2980=
METAR RPVM 020200Z 01014KT 9999 FEW018CB SCT020 BKN250 31/24 Q1010 RMK A2983 CB SE,SW=
METAR RPVM 020100Z 02005KT 330V050 9999 FEW018CB BKN100 29/24 Q1011 RMK A2985 CB SE,W=
METAR RPVM 020000Z 35004KT 9999 SCT018CB BKN100 28/24 Q1010 RMK A2983 CB NE-E-SE,W=

 

RPLC (CRK) – CLARK INTERNATIONAL AIRPORT

METAR RPLC 041300Z 03007KT 9999 SCT020 BKN100 24/18 Q1015 NOSIG RMK A2997=
METAR RPLC 041200Z 11004KT 9999 SCT020 BKN100 24/19 Q1015 NOSIG RMK A2997=
METAR RPLC 041100Z 14004KT 9999 SCT020 BKN100 24/19 Q1014 NOSIG RMK A2994=
METAR RPLC 041000Z 08006KT 9999 SCT020 BKN100 25/19 Q10113 NOSIG RMK A2991=
METAR RPLC 040900Z 08006KT 9999 SCT020 BKN300 26/19 Q1013 NOSIG RMK A2991=
METAR RPLC 040800Z 11004KT 9999 SCT020 BKN100 27/19 Q1012 NOSIG RMK A2988=
METAR RPLC 040700Z 11006KT 9999 SCT0220 BKN300 28/20 Q1011 NOSIG RMK A2985=
METAR RPLC 040600Z 08004KT 9999 SCT020 BKN100 28/19 Q1012 NOSIG RMK A2988=
METAR RPLC 040500Z 36006KT 9999 SCT020 BKN100 29/19 Q1012 NOSIG RMK A2988=
METAR RPLC 040400Z 02006KT 9999 SCT020 BKN300 28/19 Q1013 NOSIG RMK A2991=
METAR RPLC 040300Z 36010KT 9999 FEW020 BKN300 28/19 Q1014 NOSIG RMK A2994=
METAR RPLC 040200Z 36010KT 9999 FEW020 BKN300 27/19 Q1015 NOSIG RMK A2997=
METAR RPLC 040100Z 35012KT 9999 FEW020 BKN300 25/19 Q1015 NOSIG RMK A2997=
METAR RPLC 040000Z 35006KT 9999 FEW020 BKN300 24/18 Q1015 NOSIG RMK A2997=
METAR RPLC 032300Z 29004KT 9999 FEW020 BKN300 22/17 Q1014 NOSIG RMK A2994=
METAR RPLC 032200Z 32004KT 9999 FEW020 SCT300 21/17 Q1013 NOSIG RMK A2991=
METAR RPLC 032100Z 35006KT 9999 FEW020 SCT300 21/18 Q1013 NOSIG RMK A2991=
METAR RPLC 032000Z 32004KT 9999 FEW020 SCT300 21/18 Q1012 NOSIG RMK A2988=
METAR RPLC 031900Z 32004KT 9999 FEW020 SCT300 21/18 Q1013 NOSIG RMK A2991=
METAR RPLC 031800Z 29002KT 9999 FEW020 SCT300 22/18 Q1013 NOSIG RMK A2991=
METAR RPLC 031700Z 32002KT 9999 FEW020 BKN300 22/18 Q1015 NOSIG RMK A2997=
METAR RPLC 031600Z 27002KT 9999 FEW020 BKN300 22/19 Q1015 NOSIG RMK A2997=
METAR RPLC 031500Z 34002KT 9999 FEW020 BKN300 23/19 Q1015 NOSIG RMK A2997=
METAR RPLC 031400Z 34004KT 9999 FEW020 BKN300 23/19 Q1016 NOSIG RMK A3000=
METAR RPLC 031300Z 34006KT 9999 FEW020 BKN300 34/19 Q1016 NOSIG RMK A3000=
METAR RPLC 031200Z 35002KT 9999 FEW020 BKN100 25/18 Q1015 NOSIG RMK A2997=
METAR RPLC 031100Z 09004KT 9999 FEW020 BKN100 25/19 Q1014 NOSIG RMK A2994=
METAR RPLC 031000Z 09002KT 9999 SCT020 BKN100 26/19Q1013 NOSIG RMK A2991=
METAR RPLC 030900Z 07004KT 9999 SCT020 BKN100 27/19 Q1012 NOSIG RMK A2988=
METAR RPLC 030800Z 09006KT 9999 SCT020 BKN100 28/19 Q1011 NOSIG RMK A2985=
METAR RPLC 030700Z 06006KT 9999 SCT020 BKN300 29/18 Q1011 NOSIG RMK A2985=
METAR RPLC 030600Z 36006KT 9999 SCT020 BKN300 30/19 Q1011 NOSIG RMK A2985=
METAR RPLC 030500Z 10004KT 9999 SCT020 BKN300 30/18 Q1013 NOSIG RMK A2991=
METAR RPLC 030400Z 04002KT 9999 FEW020 BKN300 29/19 Q1013 NOSIG RMK A2991=
METAR RPLC 030300Z 09002KT 9999 FEW020 BKN300 28/19 Q1014 NOSIG RMK A2994=
METAR RPLC 030200Z 36002KT 9999 FEW020 SCT300 27/18 Q1015 NOSIG RMK A2997=
METAR RPLC 030100Z 34002KT 9999 FEW020 SCT300 25/18 Q1015 NOSIG RMK A2997=
METAR RPLC 030000Z 32002KT 9999 SCT020 BKN100 24/18 Q1015 NOSIG RMK A2997=
METAR RPLC 022300Z 32002KT 9999 SCT020 BKN100 23/18 Q1014 NOSIG RMK A2994=
METAR RPLC 022200Z 27002KT 9999 FEW020 SCT300 21/18 Q1013 NOSIG RMK A2991=
METAR RPLC 022100Z 29002KT 9999 FEW020 SCT300 21/18 Q1013 NOSIG RMK A2991=
METAR RPLC 022000Z 26002KT 9999 FEW020 BKN300 22/18 Q1012 NOSIG RMK A2988=
METAR RPLC 021900Z 27002KT 9999 FEW020 BKN300 22/19 Q1012 NOSIG RMK A2988=
METAR RPLC 021800Z 32002KT 9999 FEW020 BKN100 22/19 Q1013 NOSIG RMK A2991=
METAR RPLC 021700Z 32002KT 9999 FEW020 BKN100 22/19 Q1013 NOSIG RMK A2991=
METAR RPLC 021600Z 27002KT 9999 FEW020 BKN300 22/19 Q1015 NOSIG RMK A2997=
METAR RPLC 021500Z 34002KT 9999 FEW020 BKN300 23/19 Q1014 NOSIG RMK A2994=
METAR RPLC 021400Z 34002KT 9999 FEW020 BKN300 23/19 Q1014 NOSIG RMK A2994=
METAR RPLC 021300Z 32002KT 9999 FEW020 BKN300 23/19 Q1014 NOSIG RMK A2994=
METAR RPLC 021200Z 25002KT 9999 FEW020 BKN300 24/19 Q1014 NOSIG RMK A2994=
METAR RPLC 021100Z 09002KT 9999 FEW020 BKN300 25/19 Q1013 NOSIG RMK A2991=
METAR RPLC 021000Z 07004KT 9999 FEW020 BKN300 26/19 Q1012 NOSIG RMK A2988=
METAR RPLC 020900Z 07004KT 9999 FEW020 BKN300 27/19 Q1011 NOSIG RMK A2991=
METAR RPLC 020800Z 07006KT 9999 FEW020 BKN300 28/19 Q1010 NOSIG RMK A2983=
METAR RPLC 020700Z 04008KT 9999 FEW020 BKN300 29/19 Q1010 NOSIG RMK A2983=
METAR RPLC 020600Z 09006KT 9999 FEW020 BKN300 30/20 Q1010 NOSIG RMK A2983=
METAR RPLC 020500Z 14006KT 9999 FEW020 SCT100 BKN300 29/19 Q1011 NOSIG RMK A2985=
METAR RPLC 020400Z 36008KT 9999 FEW020 BKN100 28/19 Q1012  NOSIG RMK A2988=
METAR RPLC 020300Z 02008KT 9999 FEW020 BKN100 27/19 Q1013 NOSIG RMK A2991=
METAR RPLC 020200Z 09002KT 9999 FEW020 BKN300 27/19 Q1014 NOSIG RMK A2994=
METAR RPLC 020100Z 35006KT 9999 FEW020 BKN300 26/19 Q1014 NOSIG RMK A2994=
METAR RPLC 020000Z 35006KT 9999 FEW020 BKN300 25/19 Q1013 NOSIG RMK A2991=

 

RPLB (SFS) – SUBIC BAY INTERNATIONAL AIRPORT

METAR RPLB 041300Z 04008KT 9999 FEW020 25/19 Q1014 NOSIG RMK A2994=
METAR RPLB 041200Z 04008KT 360V060 9999 FEW020 25/19 Q1013 NOSIG RMK A2991=
METAR RPLB 041100Z 06010KT 030V090 9999 FEW020 SCT080 26/19 Q1013 NOSIG RMK A2991=
METAR RPLB 041000Z 06009KT 030V090 9999 SCT020 26/19 Q1013 NOSIG RMK A2991=
METAR RPLB 040900Z 06011KT 9999 SCT020 27/19 Q1012 NOSIG RMK A2988=
METAR RPLB 040800Z 06010KT 9999 SCT020 28/19 Q1011 NOSIG RMK A2985=
METAR RPLB 040700Z 07013KT 9999 SCT020 BKN300 29/18 Q1011 NOSIG RMK A2985=
METAR RPLB 040600Z 06017KT 9999 SCT020 BKN300 30/18 Q1011 NOSIG RMK A2985=
METAR RPLB 040500Z 06016G27KT 9999 SCT020 BKN300 30/19 Q1012 NOSIG RMK A2988=
METAR RPLB 040400Z 05014KT 9999 FEW020 BKN300 29/19 Q1013 NOSIG RMK A2991=
METAR RPLB 040300Z 06013KT 020V090 9999 FEW020 BKN300 29/18 Q1013 NOSIG RMK A2991=
METAR RPLB 040200Z 05011KT 020V080 9999 FEW020 SCT080 BKN300 28/18 Q1014 NOSIG RMK A2994=
METAR RPLB 040100Z 05011KT 9999 FEW020 BKN080 26/17 Q1014 NOSIG RMK A2994=
METAR RPLB 040000Z 04007KT 020V080 9999 FEW020 BKN300 25/17 Q1014 NOSIG RMK A2994=
METAR RPLB 032300Z 04006KT 010V070 9999 FEW020 BKN300 24/17 Q1013 NOSIG RMK A2991=
METAR RPLB 032200Z 04006KT 020V080 9999 FEW020 SCT300 24/18 Q1012 NOSIG RMK A2988=
METAR RPLB 032100Z 05009KT 020V080 9999 FEW020 24/17 Q1012 NOSIG RMK A2988=
METAR RPLB 032000Z 05010KT 9999 FEW020 24/18 Q1011 NOSIG RMK A2985=
METAR RPLB 031900Z 05010KT 9999 FEW020 24/18 Q1011 NOSIG RMK A2985=
METAR RPLB 031800Z 05011KT 9999 FEW020 24/18 Q1012 NOSIG RMK A2988=
METAR RPLB 031700Z 05011KT 020V080 9999 FEW020 25/18 Q1013 NOSIG RMK A2991=
METAR RPLB 031600Z 07010KT 9999 FEW020 24/18 Q1014 NOSIG RMK A2994=
METAR RPLB 031500Z 07009KT 9999 FEW020 24/18 Q1014 NOSIG RMK A2994=
METAR RPLB 031400Z 07012KT 9999 FEW020 25/19 Q1014 NOSIG RMK A2994=
METAR RPLB 0311200Z 07012KT 9999 FEW020 25/18 Q1014 NOSIG RMK A2994=
METAR RPLB 031200Z 07013KT 9999 FEW020 SCT080 26/18 Q1014 NOSIG RMK A2994=
METAR RPLB 031100Z 07010KT 9999 FEW020 BKN080 27/19 Q10113 NOSIG RMK A2991=
METAR RPLB 091000Z 08010KT 00V100 9999 FEW020 BKN080 28/18 Q1012 NOSIG RMK A2988=
METAR RPLB 030900Z 09009KT 9999 FEW020 BKN080 29/18 Q1011 NOSIG RMK A2985=
METAR RPLB 030800Z 08010KT 040V100 9999 FEW020 SCT300 30/19 Q1010 NOSIG RMK A2983=
METAR RPLB 030700Z 09009KT 9999 FEW020 BKN300 30/19 Q1010 NOSIG RMK A2983=
METAR RPLB 030600Z 10007KT 060V130 9999 FEW020 BKN080 29/18 Q1011 NOSIG RMK A2985=
METAR RPLB 030500Z 07011KT 9999 FEW020 BKN080 29/18 Q1012 NOSIG RMK A2988=
METAR RPLB 030400Z 06012KT 9999 FEW020 BKN080 29/19 Q1012 NOSIG RMK A2988=
METAR RPLB 030300Z 07015KT 9999 FEW020 BKN300 29/18 Q1013 NOSIG RMK A2991=
METAR RPLB 030200Z 06011KT 9999 FEW020 BKN300 28/19 Q1014 NOSIG RMK A2994=
METAR RPLB 030100Z 06012KT 9999 FEW020 SCT300 27/18 Q1014 NOSIG RMK A2994=
METAR RPLB 030000Z 05008KT 9999 FEW020 SCT300 26/18 Q1013 NOSIG RMK A2991=
METAR RPLB 022300Z 02007KT 320V050 9999 FEW020 SCT300 24/18 Q1013 NOSIG RMK A2991=
METAR RPLB 022200Z 04005KT 010V080 9999 FEW020 SCT300 24/18 Q1012 NOSIG RMK A2988=
METAR RPLB 022100Z 04008KT 9999 FEW020 24/18 Q1011 NOSIG RMK A2985=
METAR RPLB 022000Z 05006KT 9999 FEW020 23/18 Q1011 NOSIG RMK A2985=
METAR RPLB 021900Z 05007KT 9999 FEW020 24/18 Q1011 NOSIG RMK A2985=
METAR RPLB 021800Z 06010KT 9999 FEW020 24/19 Q1012 NOSIG RMK A2988=
METAR RPLB 021700Z 05009KT 9999 FEW020 BKN080 25/19 Q1012 NOSIG RMK A2988=
METAR RPLB 021600Z 07013KT 9999 FEW020 25/18 Q1012 NOSIG RMK A2988=
METAR RPLB 021500Z 06008KT 9999 FEW020 BKN080 25/18 Q1013 NOSIG RMK A2991=
METAR RPLB 021400Z 06009KT 9999 FEW020 BKN080 25/19 Q1013 NOSIG RMK A2991=
METAR RPLB 021300Z 05007KT 9999 FEW020 25/19 Q1013 NOSIG RMK A2991=
METAR RPLB 021200Z 06006KT 9999 FEW020 25/19 Q1013 NOSIG RMK A2991=
METAR RPLB 021100Z 07007KT 9999 FEW020 25/19 Q1012 NOSIG RMK A2988=
METAR RPLB 021000Z 08007KT 9999 FEW018 SCT080 27/19 Q1011 NOSIG RMK A2985=
METAR RPLB 020900Z 06010KT 9999 FEW020 BKN300 28/18 Q1010 NOSIG RMK A2983=
METAR RPLB 020800Z 07011KT 9999 FEW020 BKN300 30/18 Q1009 NOSIG RMK A2980=
METAR RPLB 020700Z 06011KT 030V090 9999 FEW020 BKN300 30/19 Q1009 NOSIG RMK A2980=
METAR RPLB 020600Z 05011KT 020V080 9999 FEW020 BKN080 30/19 Q1009 NOSIG RMK A2980=
METAR RPLB 020500Z 05012KT 020V080 9999 FEW018 SCT080 BKN300 30/19 Q1010 NOSIG RMK A2983=
METAR RPLB 020400Z 05011KT 9999 FEW018 SCT080 BKN300 29/18 Q1011 NOSIG RMK A2985=
METAR RPLB 020300Z 05014KT 9999 FEW018 SCT080 BKN300 28/19 Q1012 NOSIG RMK A2988=
METAR RPLB 020200Z 06013KT 9999 FEW018 BKN080 27/19 Q1012 NOSIG RMK A2988=
METAR RPLB 020100Z 05012KT 020V080 9999 FEW018 BKN080 27/19 Q1012 NOSIG RMK A2988=
METAR RPLB 020000Z 05008KT 020V080 9999 FEW018 SCT080 BKN300 26/19 Q1012 NOSIG RMK A2988=

 

RPLI (LAO) – LAOAG INTERNATIONAL AIRPORT

METAR RPLI 041200Z 05008KT 8000 FEW018 BKN100 24/16 Q1014 NOSIG RMK A2994=
METAR RPLI 041100Z  05009KT 8000 FEW018 BKN100 24/15 Q1014 NOSIG RMK A2994=
METAR RPLI 04100Z 05011KT 8000 FEW018 BKN090 24/16 Q1014 NOSIG RMK A2994=
METAR RPLI 040900Z 04013KT 9999 FEW018 BKN090 26/16 Q1013 NOSIG RMK A2991=
METAR RPLI 040800Z 04013KT 9999 FEW018 BKN090 26/16 Q1012 NOSIG RMK A2988=
METAR RPLI 040700Z 04016KT 9999 FEW018 BKN090 26/16 Q1012 NOSIG RMK A2988=
METAR RPLI 040600Z 03018KT 9999 FEW018 BKN090 27/18 Q1013 NOSIG RMK A2991=
METAR RPLI 040500Z 03019KT 9999 FEW018 BKN100 28/17 Q1013 NOSIG RMK A2991=
METAR RPLI 040400Z 02016KT 9999 FEW018 BKN090 28/18 Q1014 NOSIG RMK A2994=
METAR RPLI 040300Z 03016KT 9999 FEW018 BKN090 27/27 Q1015 NOSIG RMK A2997=
METAR RPLI 040200Z 04016KT 9999 FEW018 SCT100 27/18 Q1015 NOSIG RMK A2997=
METAR RPLI 040100Z 03015KT 9999 FEW018 SCT090 26/18 Q1015 NOSIG RMK A2997=
METAR RPLI 040000Z 02014KT 9999 FEW018 BKN090 25/18 Q1015 NOSIG RMK A2997=
METAR RPLI 032300Z 02011KT 9999 FEW018 BKN090 24/17 Q1014 NOSIG RMK A2994=
METAR RPLI 032200Z 02010KT 9999 FEW018 BKN090 24/18 Q1014 NOSIG RMK A2994=
METAR RPLI 032100Z 02010KT 9999 FEW018 BKN090 24/18 Q1013 NOSIG RMK A2991=
METAR RPLI 031800Z 02004KT 9999 FEW018 22/17 Q1013 NOSIG RMK A2991=
METAR RPLI 031500Z 04005KT 9999 FEW018 BKN090 23/17 Q1015 NOSIG RMK A2997=
METAR RPLI 031200Z 03009KT 9999 FEW018 24/18 Q1014 `NOSIG RMK A2994=
METAR RPLI 031100Z 03013KT 9999 FEW018 BKN100 224/18 Q1014 NOSIG RMK A2994=
METAR RPLI 031100Z 03013KT 9999 FEW018 BKN100 24/18 Q1014 NOSIG RMK A2994= 
METAR RPLI 031000Z 02012KT 9999 FEW018 BKN10 25/17 Q1013 NOSIG RMK A2991=
METAR RPLI 030900Z 02012KT 9999 FEW018 SCT100 BKN290 26/18 Q1012 NOSIG RMK A2988=
METAR RPLI 030800Z 03015KT 9999 FEW018 SCT100 BKN290 27/18 Q1011 NOSIG RMK A2985=
METAR RPLI 030700Z 04014KT 9999 FEW018 BKN290 28/18 Q1010 NOSIG RMK A2983=
METAR RPLI 030600Z 02013KT 9999 FEW018 BKN290 30/18 Q1010 NOSIG RMK A2983=
METAR RPLI 030500Z 35012KT 9999 FEW018 BKN290 29/19 Q1011 NOSIG RMK A2985=
METAR RPLI 030400Z 02010KT 340V050 9999 FEW018 BKN090 29/18 Q1012 NOSIG RMK A2988=
METAR RPLI 030300Z 36007KT 330V040 9999 FEW018 BKN090 28/18 Q1014 NOSIG A2994=
METAR RPLI 030200Z 02008KT 9999 FEW018 BKIN090 27/18 Q1014 NOSIG RMK A2994=
METAR RPLI 030100Z 02008KT 9999 FEW018 BKIN100 26/18 Q1014 NOSIG RMK A2994=
METAR RPLI 030000Z 04009KT 360V060 8000 FEW018 BKN100 24/17 Q1014 NOSIG RMK A2994=
METAR RPLI 022300Z 01009KT 8000 SCT100 23/16 Q1013 NOSIG RMK A2991=
METAR RPLI 022200Z 02008KT 9999 FEW018 BKN080 22/16 Q1013 NOSIG RMK A2991=
METAR RPLI 022100Z 03007KT 9999 FEW018 22/17 Q1012 NOSIG RMK A2988=
METAR RPLI 021800Z 36003KT 9999 FEW018 21/18 Q1012 NOSIG RMK A2988=
METAR RPLI 021500Z 02007KT 9999 FEW018 BKN090 24/17 Q1014 NOSIG RMK A2994=
METAR RPLI 021200Z 02008KT 9999 FEW018 SCT100 24/17 Q1013 NOSIG RMK A2991=
METAR RPLI 021100Z 02008KT 9999 FEW018 SCT100 BKN290 24/17 Q1012 NOSIG RMK A2988=
METAR RPLI 021000Z 03008KT 9999 FEW018 BKN280 25/17 Q1011 NOSIG RMK A2985=
METAR RPLI 020900Z 04012KT 9999 FEW018 BKN280 26/18 Q1010 NOSIG RMK A2982=
METAR RPLI 020800Z 03013KT 9999 FEW018 SCT100 BKN290 27/18 Q1010 NOSIG RMK A2982=
METAR RPLI 020700Z 03014KT 9999 FEW018 BKN290 28/18 Q1009 NOSIG RMK A2980=
METAR RPLI 020600Z 03016KT 9999 FEW018 BKN090 29/18 Q1010 NOSIG RMK A2982=
METAR RPLI 020500Z 04015KT 9999 FEW018 SCT090 BKN290 29/18 Q1011 NOSIG RMK A2985=
METAR RPLI 020400Z 04015KT 9999 FEW018 BKN100 29/18 Q1011 NOSIG RMK A2986=
METAR RPLI 020300Z 03016KT 9999 FEW018 BKN280 28/18 Q1012 NOSIG RMK A2988=
METAR RPLI 020200Z 03013KT 9999 FEW018 BKN280 27/18 Q1013 NOSIG RMK A2991=
METAR RPLI 020100Z 02011KT 9999 FEW018 BKN280 26/18 Q1013 NOSIG RMK A2991=
METAR RPLI 020000Z 02013KT 9999 FEW018 BKN280 25/17 Q1013 NOSIG RMK A2991=

 

RPVP (PPS) – PUERTO PRINCESA INTERNATIONAL AIRPORT

METAR RPVP 041200Z 18006KT 9999 SCT019 OVC080 25/23 Q1011 RMK A2985=
METAR RPVP 041100Z 27010KT 9999 SCT019 OVC080 25/23 Q1011 RMK A2985 =
METAR RPVP 041000Z 27010KT 9999 -RA SCT019 OVC080 25/24 Q1010 RMK A2983=
METAR RPVP 040900Z 33008KT 9999  -RA SCT019 OVC080 26/23 Q1010 RMK A2983=
METAR RPVP 040800Z 36012KT 9999 -SHRA SCT019 OVC080 27/24 Q1009 RMK A2980=
METAR RPVP 040700Z 09014G20KT 9999 SCT019 BKN080 30/23 Q1009 RMK A2980=
METAR RPVP 040600Z 09017KT 9999 SCT019 BKN080 31/23 Q1009 RMK A2980=
METAR RPVP 040500Z 03019KT 9999 FEW018 BKN100 28/17 Q1013 NOSIG RMK A2991=
METAR RPVP 040400Z 09017KT 9999 FEW019 SCT080 32/23 Q1011 RMK A2985=
METAR RPVP 040300Z 09015KT 9999 FEW019 31/23 Q1011 RMK A2985= 
METAR RPVP 040200Z 06012KT 9999 FEW019 BKN080 30/23 Q1012 RMK A2988=
METAR RPVP 040100Z 06008KT 9999 FEW019 BKN080 28/24 Q1012 RMK A2988=
METAR RPVP 040000Z 03008KT 9999 FEW019 BKN080 28/23 Q1011 RMK A2985=
METAR RPVP 032300Z 09015KT 9999 FEW019 BKN240 27/24 Q1011 RMK A2985=
METAR RPVP 032200Z 09016G24KT 9999 FEW019 SCT080 27/25 Q1010 RMK A2983=
METAR RPVP 032100Z 27004KT 9999 FEW019 SCT250 26/24 Q1009 RMK A2980=
METAR RPVP 031800Z 33004KT 9999 FEW019 27/24 Q1010 RMK A2983=
METAR RPVP 031500Z 06010KT 9999 FEW017CB SCT019 OVC080 28/24 Q1012 RMK A2988 CB NE-E-SE-S=
METAR RPVP 031200Z 06016G22KT 9999 -SHRA FEW019 OVC080 28/25 Q1011 RMK A2985=
METAR RPVP 031100Z 03012KT 9999 FEW019 BKN080 28/25 Q1010 RMK A2993 RESHRA=
METAR RPVP 031000Z 03004KT 9999 -SHRA FEW019 BKN080 27/25 Q1010 RMK A2983=
METAR RPVP 030900Z 18004KT 9999 FEW019 BKN080 28/2 Q1009 RMK A2980=
METAR RPVP 030800Z 03004KT 9999 FEW019 OVC080 29/24 Q1009 RMK A2980  RESHRA=
METAR RPVP 030700Z 34004KT 9999 -SHRA FEW019 OVC080 28/24 Q1009 RMK A2980=
METAR RPVP 030600Z 15004KT 9999 FEW019 OVC080 28/24 Q1010 RMK A2983=
METAR RPVP 030500Z 18010KT 9999 FEW019 OVC080 28/25 Q1011 RMK A2985=
METAR RPVP 030400Z 15012KT 9999 FEW19 BKN080 28/23 Q1012 RMK A2988=
METAR RPVP 030300Z 09012KT 9999 FEW019 SCT080 BKN240 31/24 Q1012 RMK A2988=
METAR RPVP 030200Z 27006KT 9999 FEW019 BKN080 30/25 Q1012 RMK A2988=
METAR RPVP 030100Z 27006KT 9999 SCT019 BKN080 28/24 Q1012 RMK A2988=
METAR RPVP 030000Z 27004KT 9999 FEW019 BKN080 27/24 Q1012 RMK A2988=
METAR RPVP 022300Z 27004KT 9999 FEW019 SCT080 26/24 Q1011 RMK A2985=
METAR RPVP 022200Z 27004KT 9999 SCT019 BKN080 OVC240 26/24 Q1010 RMK A2983=
METAR RPVP 022100Z 27004KT 9999 SCT019 BKN080 26/24 Q1010 RMK A2983=
METAR RPVP 021800Z 27004KT 9999 SCT017CB BKN080 26/24 Q1009 RMK A2980 CB NE-E-SE-S W/ OCNL LTG=
METAR RPVP 021500Z 27008KT 9999 FEW017CB BKN080 26/25 Q1011 RMK A2985 CB NE-E-ESE W/ OCNL LTG=
METAR RPVP 021200Z 30004KT 9999 FEW019 SCT240 27/25 Q1010 RMK A2983=
METAR RPVP 021100Z 34004KT 9999 FEW019 BKN240 27/25 Q1010 RMK A2983=
METAR RPVP 021000Z 03004KT 9999 SCT019 OVC240 28/25 Q1009 RMK A2980=
METAR RPVP 020900Z 03006KT 9999 SCT019 OVC240 28/24 Q1008 RMK A2977=
METAR RPVP 020800Z 36010G20KT 9999 SCT019TCU BKN080 OVC240 28/25 Q1008 RMK A2977 VCSH/ TCU WSW 
METAR RPVP 020700Z 09016KT 9999 SCT019 OVC240 31/25 Q1008 RMK A2977=
METAR RPVP 020600Z 09012KT 9999 SCT019 SCT080 OVC240 31/25 Q1008 RMK A2977=
METAR RPVP 020500Z 09012KT 9999 FEW019 BKN080 OVC240 30/25 Q1009 RMK A2980=
METAR RPVP 020400Z 09006KT 9999 FEW019 BKN080 OVC240 30/25 Q1010 RMK A2983=
METAR RPVP 020300Z 09014KT 9999 FEW019 BKN080 OVC240 30/25 Q1010 RMK A2983=
METAR RPVP 020200Z 06006KT 9999 FEW019 SCT080 BKN240 30/25 Q1010 RMK A2983=
METAR RPVP 020100Z 06010KT 9999 FEW019 BKN240 30/25 Q1010 RMK A2983=
METAR RPVP 020000Z 09008KT 9999 FEW019 BKN240 28/24 Q1010 RMK A2983=

 

RPVD (DGT) – SIBULAN AIRPORT (DUMAGUETE AIRPORT)

METAR RPVD 041200Z 34004KT 9999 FEW015 BKN220 27/24 Q1011 RMK A2985=
METAR RPVD 040900Z 02004KT 9999 FEW05 29/24 Q1009 RMK A2980=
METAR RPVD 040800Z 29004KT 9999 FEW015 SCT070 28/24 Q1009 RMK A2980=
METAR RPVD 040700Z 29004KT 9999 VCSH FEW015 BKN070 27/25 Q1009 RMK A2980 RERA VCSH WSW WNW=
METAR RPVD 040600Z 34004KT 9000 -RA SCT015 BKN070 27/24 Q1009 RMK A2980=
METAR RPVD 040500Z 32004KT 9999 -SHRA BKN015 28/23 Q1010 RMK A2983= 
METAR RPVD 040400Z 32004KT 9999 SCT015 29/22 Q1011 RMK A2985=
METAR RPVD 040300Z 32006KT 9999 SCT015 30/22 Q1011 RMK A2985=
METAR RPVD 040200Z 29006KT 9999 FEW015 29/21 Q1012 RMK A2988=
METAR RPVD 040100Z 29008KT 9999 FEW015 29/22 Q1012 RMK A2988=
METAR RPVD 040000Z 29008KT 9999 FEW015 28/21 Q1011 RMK A2985=
METAR RPVD 032100Z 29008KT 9999 FEW015 25/22 Q1010 RMK A2983=
METAR RPVD 031800Z 02010KT 5000 +RA SCT015 OVC070 24/23 Q1011 RMK A2985=
METAR RPVD 031500Z 04010KT 9999 SCT015 OVC070 27/23 Q1012 RMK A2988=
METAR RPVD 031200Z 29004KT 9999 SCT015 OVC070 26/23 Q1012 RMK A2988=
METAR RPVD 030900Z 27012KT 9000 -SHRA SCT015 OVC070 26/24 Q1010RMK A2983=
METAR RPVD 030800Z 25004KT 9999 VCSH SCT015 OVC070 26/24 Q1009 RMK A2980 RESHRA VCSH WSW-NW=
METAR RPVD 030800Z 22004KT 9000 -SHRA SCT015 OVC070 27/24 Q1009 RMK A2980=
METAR RPVD 030600Z 09006KT 9999 VCSH FEW014CB SCT015 OVC070 27/24 Q1010 RMK A2983 CB VCSH ESE-SE=
METAR RPVD 030500Z 07012KT 9999 VCSH FEW014CB FEW015 OVC070 28/24 Q1010 RMK A2983 CB SE VCSH NE-SE=
METAR RPVD 030400Z 36004KT 9999  VCSH SCT015 OVC070 28/24 Q1011 RMK A2985 VCSH NE WNW=
METAR RPVD 030300Z 29006KT 9999 VCSH SCT015 OVC070 28/24 Q1011 RMK A2985 RESHRA VCSH NE=
METAR RPVD 030200Z 29012KT 9999 SCT015 SCT070 29/24 Q1011 RMK A2985=
METAR RPVD 030100Z 29010KT 9999 FEW015 BKN220 29/24 Q1011 RMK A2985=
METAR RPVD 030000Z 32010KT 9999 FEW014CB FEW015 BKN220 28/24 Q1011 RMK A2985 CB S=
METAR RPVD 022200Z 32010KT 9999 VCSH FEW015 SCT070 BKN220 27/23 Q1009 RMK A2980 VCSH WNW=
METAR RPVD 022100Z 32008KT 9999 BKN015 27/23 Q1009 RMK A2980=
METAR RPVD 021800Z 29008KT 9999 FEW015 SCT070 BKN220 28/24 Q1009 RMK A2980=
METAR RPVD 021500Z 32008KT 9999 FEW014CB SCT015 BKN220 28/24 Q1010 RMK A2983=
METAR RPVD 021200Z 29010KT 9999 FEW015 BKN220 28/23 Q1010 RMK A2983=
METAR RPVD 021100Z 29010KT 9999 FEW015 OVC220 28/23 Q1009 RMK A2974=
METAR RPVD 021000Z 29012G20KT 9999 FEW015 OVC220 28/23 Q1009 RMK A2980=
METAR RPVD 020900Z 29012KT 9999 VCSH FEW015 OVC220 28/23 Q1008 RMK A2977 VCSH W-NNW=
METAR RPVD 020800Z 29008KT 9999 FEW015 BKN220 29/24 Q1007 RMK A2974=
METAR RPVD 020700Z 32010KT 9999 FEW015 SCT070 BKN220 29/24 Q1006 RMK A2971=
METAR RPVD 020600Z 32008KT 9999 FEW015 SCT070 BKN220 30/24 Q1007 RMK A2974=
METAR RPVD 020500Z 34012G18KT 9999 VCSH FEW014CB SCT015 OVC070 30/25 Q1008 RMK A2977 CB NW=
METAR RPVD 020400Z 34012G20KT 9999 VCSH FEW014CB FEW015 BKN220 30/25 Q1009 RMK A2980 CB/VCSH NNE,SE=
METAR RPVD 020300Z 32006KT 9999 VCSH FEW014CB FEW015 BKN220 30/25 Q1009 RMK A2980 CB/VCSH SE=
METAR RPVD 020200Z 29008KT 9999 FEW014CB FEW015 BKN220 30/25 Q1009 RMK A2980 CB E,SE=
METAR RPVD 020100Z 34006KT 9999 FEW014CB FEW015 BKN220 30/25 Q1009 RMK A2980 CB ENE,ESE=
METAR RPVD 020000Z 32004KT 9999 FEW014CB FEW015 BKN220 28/25 Q1009 RMK A2980 CB ESE=

 

RPMR (GES) – GENERAL SANTOS INTERNATIONAL AIRTPORT

METAR RPMR 040900Z 28005KT 9999 FEW018 BKN080 28/23 Q1008 RMK A2977=
METAR RPMR 040800Z 26003KT 230V290 9999 FEW018 BKN080 29/23 Q1008 RMK A2977=
METAR RPMR 040700Z VRB03KT 9999 VCSH FEW018 BKN080 30/22 Q1008 RMK A2977 VCSH NW SW=
METAR RPMR 040600Z 27005KT 240V300 9999 FEW018 BKN080 26/24 Q1008 RMK A2977=
METAR RPMR 040500Z VRB03KT 9999 -RA FEW015 OVC080 26/24 Q1009 RMK A2980=
METAR RPMR 040400Z 03007KT 010V070 9999 FEW018 BKN080 30/22 Q1010 RMK A2983 VCSH NE SW=
METAR RPMR 040300Z 03007KT 9999 FEW018 BKN080 30/22 Q1011 RMK A2985= 
METAR RPMR 040300Z 03007KT 9999 FEW018 BKN080 30/22 Q1011 RMK A2985=
METAR RPMR 040200Z 03004KT 350V070 9999 FEW018 BKN080 28/22 Q1011 RMK A2985=
METAR RPMR 040100Z 06004KT 340V100 9999 FEW018 28/22 Q1012 RMK A2988=
METAR RPMR 040000Z 36005KT 9999 FEW018 27/22 Q1011 RMK A2985=
METAR RPMR 030900Z 33010KT 9999 -RA SCT018 OVC08025/23 Q1010 RMK A2983=
METAR RPMR 030800Z 31005KT 9999 -RA SCT018 OVC080 25/24 Q1009 RMK A2980=
METAR RPMR 030700Z 30004KT 9999 -SHRA SCT018 OVC080 27/25 Q1009 RMK A2980=
METAR RPMR 030600Z 19003KT 9999 VCSH FEW018 OVC080 27/25 Q1009 RMK A2980 VCSH NW SW=
METAR RPMR 030500Z 21004KT 190V250 9000 RA SCT018 OVC080 25/25 Q1009 RMK A2980=
METAR RPMR 030400Z 14007KT 110V170 9999 VCSH FEW018 BKN080 29/25 Q1010 RMK A2980 VCSH NW SW=
METAR RPMR 030300Z VRB03KT 9999 FEW018 BKN080 30/24 Q1011 RMK A2985=
METAR RPMR 030200Z 02005KT 350V050 9999 FEW018 BKN080 28/24 Q1011 RMK A2985=
METAR RPMR 030100Z 02004KT 350V050 9999 FEW018 OVC080 27/24 Q1011 RMK A2985=
METAR RPMR 030000Z 03004KT 330V060 9999 FEW018 OVC080 27/24 Q1011 RMK A2985=
METAR RPMR 020900Z 27004KT 9999 -RA FEW018 BKN080 24/23 Q1008 RMK A2977=
METAR RPMR 020800Z 28006KT 9999 -RA FEW018 OVC080 24/23 Q1008 RMK A2977 =
METAR RPMR 020700Z 27009KT 9999 -TSRA SCT018 OVC080 24/22 Q1008 RMK A2977 CB OHD=
METAR RPMR 020600Z 18008KT 9999 VCSH FEW018 OVC080 29/24 Q1008 RMK A2977 VCSH NW,SW=
METAR RPMR 020500Z 13007KT 080V170 9999 FEW018 BKN080 30/24 Q1008 RMK A2977=
METAR RPMR 020400Z 12007KT 050V170 9999 FEW018 SCT080 30/24 Q1009 RMK A2980=
METAR RPMR 020300Z 02003KT 9999 FEW018 SCT080 31/23 Q1009 RMK A2980=
METAR RPMR 020200Z VRB02KT 9999 FEW018 SCT080 29/23 Q1010 RMK A2983=
METAR RPMR 020100Z VRB02KT 9999 FEW018 28/23 Q1008 RMK A2977=
METAR RPMR 020000Z 14005KT 110V170 9999 FEW018 27/23 Q1008 RMK A2977=

 

RPMD (DVO) – FRANCISCO BANGOY INTERNATIONAL AIRPORT

METAR RPMD 041300Z 01007KT 330V040 9999 FEW016 SCT290 27/23 Q1010 RMK A2983=
METAR RPMD 041200Z  01005KT 330V040 9999 FEW015CB BKN290 28/23 Q1010 RMK A2983 CB SW=
METAR RPMD 041100Z 02006KT 9999 FEW015CB SCT090 BKN260 28/23 Q1009 RMK A2980 CB SW=
METAR RPMD 041000Z 02007KT 9999 FEW015CB SCT090 BKN260 29/23 Q1008 RMK A2977 CB W SW=
METAR RPMD 040900Z 02008KT 9999 FEW015CB SCT090 BKN260 30/22 Q1008 RMK A2977 CB W=
METAR RPMD 040800Z 01008KT 310V050 9999 FEW016 SCT090 BKN260 31/22 Q1007 RMK A2974=
METAR RPMD 040700Z 02009KT 340V050 9999 FEW016 SCT090 BKN260 31/22 Q1007 RMK A2974=
METAR RPMD 040600Z 01009KT 330V050 9999 FEW016 BKN290 32/22 Q1007 RMK A2974=
METAR RPMD 040500Z 03011KT 9999 FEW016 BKN290 31/22 Q1009 RMK A2980=
METAR RPMD 040400Z 36009KT 320V040 9999 FEW016 SCT090 BKN290 31/22 Q1010 RMK A2983=
METAR RPMD 040300Z 35008KT 290V040 9999 FEW016 BKN090 BKN290 30/22 Q1011 RMK A2985=
METAR RPMD 040200Z 36008KT 320V040 9999 FEW016 SCT090 30/23 Q1012 RMK A2988=
METAR RPMD 040100Z 35008KT 320V040 9999 FEW016 28/22 Q1012 RMK A2988=
METAR RPMD 040000Z 36009KT 330V030 9999 FEW016 SCT290 26/23 Q1011 RMK A2985=
METAR RPMD 032300Z 35005KT 310V040 9999 FEW016 25/24 Q1010 RMK A2983=
METAR RPMD 032200Z 35006KT 310V030 9999 FEW015 SCT290 23/23 Q1009 RMK A2980=
METAR RPMD 032100Z 36008KT 320V040 9999 FEW016 23/23 Q1008 RMK A2977=
METAR RPMD 032000Z 36010KT 330V030 9999 FEW016 SCT290 24/24 Q1008 RMK A2977=
METAR RPMD 031900Z 01011KT 330V040 9999 FEW016 SCT290 24/24 Q1008 RMK A2977=
METAR RPMD 031800Z 36007KT 320V040 9999 FEW016 SCT090 BKN260 24/24 Q1009 RERA RMK A2980=
METAR RPMD 031700Z 35006KT 320V030 8000 -RA FEW016 OVC080 24/24 Q1010 RMK A2985=
METAR RPMD 031600Z 36006KT 8000 -RA SCT016 OVC080 24/24 Q1012 RMK A2988=
METAR RPMD 031500Z 36005KT 320V040 8000 -RA SCT016 OVC080 24/24 Q1013 RMK A2991=
METAR RPMD 031400Z 36006KT 330V030 8000 -RA SCT015 OVC080 24/24 Q1014 RMK A2994 CONTUS LGT RA=
METAR RPMD 031300Z 36006KT 330V040 8000 -RA SCT015 OVC080 25./25 Q1014 RMK A2994= 
METAR RPMD 031200Z 020082KT 8000 -RA SCT015 OVC090 225/25 Q1013 RMK A2991= 
METAR RPMD 031100Z 36005KT 280V030 8000  -RA SCT015 OVC090 25/25 Q1013 RMK A2991 CONTUS LGT RA=
METAR RPMD 031000Z 36005KT 320V030 9999 -RA SCT015 BKN090 OVC260 25/245 Q1011 RMK A2985 CONTUS LGT RA= 
METAR RPMD 030900Z 01007KT 8000 -RA SCT015 BKN090 OVC260 25/25 Q1010 RMK A2983 =
METAR RPMD 030800Z  02008KT 9999  -RA SCT015 BKN090 OVC260 27/24 Q1009 RMK A2980=
METAR RPMD 030700Z 01010KT 9999 -SHRA SCT015 BKN090 OVC260 27/24 Q1009 RMK A2980=
METAR RPMD 030600Z 02012KT 340V040 9999 VCSH SCT015 BKN090 OVC260 28/24 Q1008 RMK A2977 VCSH SW=
METAR RPMD 030500Z 02010KT 330V040 9999 FEW015CB FEW016 BKN090 OVC260  29/24 Q1009 RMK A2980 CB W=
METAR RPMD 030400Z 36006KT 320V030 9999 SCT016 BKN090 OVC260 29/24 Q1010 RMK A2983=
METAR RPMD 030300Z 01007KT 330V050 9999 SCT016 BKN090 OVC260 29/25 Q1010 RMK A2983 =
METAR RPMD 030200Z 02006KT 310V050 9999 FEW016 BKN090 OVC260 29/25 Q1011 RMK A2985=
METAR RPMD 030100Z 01006KT 320V050 9999 FEW016 BKN090 OVC260 28/26 Q1011 RMK A2985=
METAR RPMD 030000Z 02006KT 350V050 9999 FEW016 BKN090 OVC260 26/26 Q1011 RMK A2985=
METAR RPMD 022300Z 01004KT 320V040 9999 FEW016 BKN090 OVC260 26/26 Q1010 RMK A2983=
METAR RPMD 022200Z 35002KT 9999 VCSH FEW015 SCT090 BKN260 25/25 Q1008 RMK A2977 VCSH NE,SE,SSW,W=
METAR RPMD 022100Z VRB02KT 9999 VCSH FEW015 BKN260 25/25 Q1008 RMK A2977 VCSH S=
METAR RPMD 022000Z 03002KT 9999 VCSH FEW015 BKN260 25/25 Q1007 RMK A2974 VCSH SE=
METAR RPMD 021900Z VRB02KT 9999 VCSH FEW015CB SCT090 BKN260 26/26 Q1008 RMK A2977 CB/OCNL LTG S=
METAR RPMD 021800Z 02002KT 9999 FEW016 BKN090 BKN260 25/25 Q1008 RMK A2977=
METAR RPMD 021700Z VRB02KT 9999 SCT016 BKN090 OVC260 26/26 Q1009 RETSRA RMK A2980=
METAR RPMD 021600Z 03003KT 350V080  -TSRA SCT015CB BKN080 OVC260 26/26 Q1010 RMK A2983 CB NE-E W/ OCNL LTG= 
METAR RPMD 021500Z 34004KT 310V020 9999 FEW016 BKN090 OVC260 27/25 Q1010 RMK A2983=
METAR RPMD 021400Z VRB02KT 9999 SCT015CB BKN090 OVC260 28/25 Q1010 RMK A2983 CB N-NE W/ OCNL LTG=
METAR RPMD 021300Z 19003KT 160V220 9999 FEW015CB BKN090 OVC260 29/26 Q1010 RMK A2983 CB NE W/ OCNL LTG =
METAR RPMD 021200Z 00000KT 9999 FEW016 BKN090 OVC260 28/24 Q1010 RMK A2983=
METAR RPMD 021100Z VRB02KT 9999 FEW016 BKN090 BKN260 29/24 Q1009 RMK A2980=
METAR RPMD 021000Z 20006KT 9999 FEW016 SCT090 BKN260 29/24 Q1008 RMK A2977=
METAR RPMD 020900Z 15004KT 120V180 9999 FEW015CB BKN090 OVC260 30/24 Q1007 RMK A2974 CB N=
METAR RPMD 020800Z 17006KT 9999 FEW015CB BKN090 BKN260 31/24 Q1006 RMK A2971 CB N=
METAR RPMD 020700Z 22008KT 9999 FEW015CB SCT090 BKN260 32/24 Q1006 RMK A2971 CB SW,NW=
METAR RPMD 020600Z 02003KT 310V080 9999 VCSH FEW015CB FEW016 BKN290 32/24 Q1006 RMK A2971 CB/VCSH SW-W=
METAR RPMD 020500Z 04006KT 350V080 9999 FEW015CB FEW016 SCT090 BKN290 32/24 Q1007 RMK A2974 CB WSW-W,NW=
METAR RPMD 020400Z 01006KT 340V040 9999 FEW015CB FEW016 SCT090 BKN260 31/24 Q1008 RMK A2977 CB WSW=
METAR RPMD 020300Z 02005KT 310V060 9999 FEW016 SCT090 BKN260 31/24 Q1008 RMK A2977=
METAR RPMD 020200Z 03006KT 350V060 9999 FEW016 BKN090 BKN260 29/24 Q1009 RMK A2980=
METAR RPMD 020100Z VRB02KT 9999 FEW016 BKN090 29/23 Q1009 RMK A2980=
METAR RPMD 020000Z VRB01KT 9999 FEW016 BKN090 28/23 Q1009 RMK A2980=

 

RPMZ (ZAM) – ZAMBOANGA INTERNATIONAL  AIRPORT

METAR RPMZ 041200Z 33002KT 9999 FEW017 BKN090 27/25 Q1010 RMK A2983=
METAR RPMZ 041000Z 22003KT 160V270 9999 SCT017 BKN090 28/25 Q1009 RMK A2980=
METAR RPMZ 040900Z VRB02KT 9999 FEW017 BKN090 29/25 Q1008 RMK A2977=
METAR RPMZ 040800Z VRB02KT 9999 FEW017 BKN090 30/24 Q1008 RMK A2977=
METAR RPMZ 040700Z 29005KT 240V330 9000 FEW016CB FEW017 BKN090 29/25 Q1008 RMK A2977 CB NW-NE= 
METAR RPMZ 040600Z 29010KT 260V340 9000 SCT016CB BKN090 29/25 Q1008 RMK A2977 CBSW-N NE-SE, OHD=
METAR RPMZ 040500Z 10006KT 070V180 9999 FEW016CB FEW017 BKN300 31/24 Q1009 RMK A2980 CB NW-NE=
METAR RPMZ 040400Z VRB04KT  060V140 9999 FEW016CB FEW017 BKN300 31/25 Q1009 RMK A2980 CB NW=
METAR RPMZ 040300Z VRB04KT 9999 FEW017 31/24 Q1010 RMK A2983=
METAR RPMZ 040200Z 20005KT 130V250 9999 FEW017 29/24 Q1011 RMK A2985=
METAR RPMZ 040100Z VRB02KT 9999 FEW017 30/24 Q1011 RMK A2985=
METAR RPMZ 040000Z VRB02KT 9999 FEW017 SCT300 29/23 Q1011 RMK A2985=
METAR RPMZ 032300Z 00000KT 9999 FEW017 SCT300 26/24 Q1010 RMK A2983=
METAR RPMZ 032200Z 00000KT 9999 FEW017 SCT300 24/23 Q1009 RMK A2980=
METAR RPMZ 032100Z 06002KT 9999 FEW017 BKN300 24/23 Q1009 RMK A2980=
METAR RPMZ 031800Z 09003KT 9999 FEW017 BKN300 24/24 Q1009 RMK A2980=
METAR RPMZ 031500Z 06003KT 030V110 9999 FEW017 SCT090 BKN300 26/24 Q1011 RERA RMK A2985=
METAR RPMZ 031200Z 07007KT 9999 -SHRA  SCT017 OVC080 26/24 Q1011 RMK A2985=
METAR RPMZ 031000Z VRB02KT 9999FEW017 OVC090 26/25 Q1010 RERA RMK A2983=
METAR RPMZ 030900Z 08005KT 9999  -RA SCT017 OVC080 26/24 Q1009 RMK A2980=
METAR RPMZ 030800Z 10004KT 9999 SCT017 OVC090 27/24 Q1008 RMK A2977=
METAR RPMZ  030700Z 11006KT 070V160 9999 FEW017 OVC090 29/25 Q1009 RMK A2980=
METAR RPMZ 030600Z 05006KT 9999  -RA  FEW017 OVC090 28/24 Q1009 RMK A2980=
METAR RPMZ 030500Z 07005KT 030V100 9000 SCT017 OVC090 26/24 Q1009 RESHRA RMK A2980=
METAR RPMZ 030400Z 27008KT 230V300 9999 FEW016CB FEW017 BKN090 29/26 Q1010 RMK A2983 CB W-E OHD=
METAR RPMZ 030300Z 26011KT 200V280 8000 FEW016CB FEW017 BKN300 29/26 Q1011 RMK A2985 CB NW NE=
METAR RPMZ 030200Z 26009KT 210V300 9999 FEW016CB FEW017 BKN300 30/26 Q1011 RMK A2985 CB E,NW,OHD=
METAR RPMZ 030100Z 29007KT 9999 FEW017 BKN300 29/26 Q1011 RMK A2985=
METAR RPMZ 030000Z 29003KT 250V330 9999 FEW017 BKN300 28/26 Q1011 RMK A2985=
METAR RPMZ 022300Z 29003KT 9999 FFEW017 SCT090 BKN300 26/25 Q1011 RMK A2985=
METAR RPMZ 022200Z 00000KT 9999 FEW017 SCT090 BKN300 24/23 Q1010 RMK A2983=
METAR RPMZ 022100Z VRB01KT 9999 FEW017 SCT090 BKN300 25/24 Q1009 RMK A2980=
METAR RPMZ 021800Z VRB01KT 9999 FEW017 BKN090 25/24 Q1009 RMK A2980=
METAR RPMZ 021500Z 00000KT 9999 FEW017 BKN090 25/24 Q1010 RMK A2983=
METAR RPMZ 021200Z 30001KT 9999 FEW017 BKN090 26/25 Q1010 RMK A2983=
METAR RPMZ 021000Z 26005KT 9999 FEW017 BKN090 27/25 Q1008 RMK A2977=
METAR RPMZ 020900Z 28005KT 9999 FEW017 BKN090 27/25 Q1008 RMK A2977=
METAR RPMZ 020800Z 28004KT 250V310 9000 -SHRA FEW016CB FEW017 BKN090 27/26 Q1007 RMK A2974 CB N=
METAR RPMZ 020700Z 26007KT 230V290 9999 FEW016CB FEW017 BKN090 27/25 Q1007 RMK A2974 CB N=
METAR RPMZ 020600Z 31008KT 9000 FEW016CB FEW017 BKN090 28/24 Q1008 RMK A2977 CB S-SW OHD=
METAR RPMZ 020500Z  25008KT 220V280 9999 FEW017 OVC090 29/27 Q1008 RMK A2977=
METAR RPMZ 020400Z 25008KT 210V280 9999 SCT017 OVC090 29/26 Q1009 RMK A2980=
METAR RPMZ 020300Z 26006KT 220V290 9999 FEW017 BKN090 29/26 Q1009 RMK A2980=
METAR RPMZ 020200Z VRB03KT 9999 FEW017 BKN090 30/25 Q1009 RMK A2980=
METAR RPMZ 020100Z 27005KT 240V310 9999 FEW016CB FEW017 BKN090 28/26 Q1009 RESHRA RMK A2980 CB SW-W, NW=
METAR RPMZ 020000Z 27004KT 9000 -SHRA FEW016CB FEW017 BKN090 27/25 Q1010 RMK A2983 CB S,SW-W,OHD=

 

RPVK (KLO) – KALIBO INTERNATIONAL AIRPORT

METAR RPVK 041200Z 06007KT 9999 SCT016 BKN070 BKN240 27/23 Q1012 RMK A2988=
METAR RPVK 040900Z 04007KT 9999 SCT016 BKN240 27/23 Q1010 RMK A2983=
METAR RPVK 040800Z 05008KT 9999 SCT016 BKN240 28/23 Q1010 RMK A2983=
METAR RPVK 040700Z 06010KT 9999 SCT016 BKN070 BKN240 28/22 Q1010 RMK A2983=
METAR RPVK 040600Z  04010KT 9999 SCT016 BKN070 29/23 Q1010 RMK A2983=
METAR RPVK 040500Z 06010KT 9999 SCT016 BKN070 29/22 Q1011 RMK A2985=
METAR RPVK 040400Z 07010KT 9999 SCT016 SCT070 BKN240 29/23 Q1012 RMK A2988=
METAR RPVK 040300Z 05010KT 9999 VCSH SCT016 SCT070 BKN240 28/24 Q1012 RMK A2988=
METAR RPVK 040200Z 05008KT 9999 VCSH SCT016 SCT070 BKN240 28/23 Q1013 RMK A2991 VCSH S=
METAR RPVK 040100Z 07007KT 9999 VCSH SCT016 BKN070 BKN240 28/23 Q1013 RMK A2991 VCSH SE-SW=
METAR RPVK 040000Z 06007KT 9999 VCSH SCT016 BKN070 BKN240 27/23 Q1013 RMK A2991 VCSH NE-S=
METAR RPVK 032100Z 22004KT 9999 SCT016 BKN240 24/23 Q1011 RMK A2985=
METAR RPVK 031800Z 03001KT 9999  SCT016 OVC240 24/23 Q1011 RMK A2985=
METAR RPVK 031500Z 02008KT 9999  SCT016 BKN070 OVC240 27/22 Q1013 RMK A2991 PCPN DSNT S/SW/W/NW= 
METAR RPVK 031200Z 03010KT 9999  SCT016 BKN070 OVC240 26/24 Q1013 RMK A2991 VCSH ALQDS=                                                         
METAR RPVK 030900Z 05010KT 9999 VCSH SCT016 BKN070 BKN240 27/23 Q1011 RMK A2985 VCSH ALQDS=
METAR RPVK 030800Z 03014KT 9999 VCSH SCT016 BKN070 BKN240 28/23 Q1010 RMK A2983 VCSH E/SE/E=
METAR RPVK 030700Z 05010KT 99999 VCSH SCT016 BKN070 OVC240 28/23 Q1010 RMK A2983 VCSH ALQDS=
METAR RPVK 030600Z 04012KT 9999 VCSH SCT016 BKN070 OVC240 28/23 Q1010 RMK A2983 VCSH E/SE/S/SW/W=
METAR RPVK 030500Z 05011KT 9999 VCSH SCT016 BKN070 OVC240 27/23 Q1011 RMK A2985 VCSH ALQDS= 
METAR RPVK 030400Z 04012KT 9999 VCSH SCT016 BKN070 OVC240 26/24 Q1012 RMK A2988 VCSH N/NE/E/SE/S/SW/W/NW=
METAR RPVK 030300Z 04017KT 9999 -RA SCT016 BKN070 OVC240 27/24 Q1012 RMK A2988=
METAR RPVK 030200Z 36008KT 9999 VCSH SCT016 BKN070 BKN240 27/24 Q1013 RMK A2991 VCSH  ALL QDS=
METAR RPVK 030100Z 04010KT 9999 VCSH SCT016 BKN070 OVC240 26/25 Q1013 RERA RMK A2991 VCSH NE-E,SE,S,SW,W,NW=
METAR RPVK 030000Z 23004KT 9999 -RA SCT016 BKN070 OVC240 25/25 Q1012 RMK A2988=
METAR RPVK 022100Z 24004KT 7000 -RA SCT016 BKN070 OVC240 24/24 Q1010 RMK A2983=
METAR RPVK 021800Z 35006KT 9999 SCT016 BKN240 27/24 Q1010 RMK A2983=
METAR RPVK 021500Z 3200KT 9999 SCT016 BKN070 OVC240 26/24 Q1011 RMK A2985=
METAR RPVK 021200Z 03014KT 9999 SCT016 BKN240 27/24 Q1011 RMK A2985=
METAR RPVK 020900Z 01007KT 9999 VCSH SCT016 BKN070 OVC240 26/25 Q1009 RMK A2980 VCSH ALL QDS=
METAR RPVK 020800Z 04010KT 4000 +RA SCT016 BKN070 OVC240 25/25 Q1009 RMK A2980=
METAR RPVK 020700Z 36007KT 9999 VCSH SCT016 BKN070 OVC240 29/24 Q1008 RMK A2977 VCSH ALL QDS=
METAR RPVK 020600Z 05003KT 9999 VCSH SCT016 BKN070 OVC240 30/25 Q1008 RMK A2977 VCSH ALL QDS=
METAR RPVK 020500Z 36006KT 9999 VCSH SCT016 BKN070 OVC240 29/24 Q1009 RMK A2980 VCSH NE,N,SE,SW=
METAR RPVK 020400Z 35008KT 9999 VCSH SCT016 BKN070 OVC240 29/24 Q1010 RMK A2983 VCSH NE,E SE,S SW=
METAR RPVK 020300Z 04016KT 9999 VCSH SCT016 BKN070 OVC240  29/23 Q1010 RMK A2983 VCSH N-E , S-W, NW=
METAR RPVK 020200Z 03019KT 9999 VCSH SCT016 BKN070 OVC240 29/24 Q1011 RMK A2985 VCSH ALL QDS=
METAR RPVK 020100Z 03015KT 9999 VCSH SCT016 BKN070 OVC240 28/24 Q1011 RMK A2985 VCSH ALL QDS=
METAR RPVK 020000Z 04019KT 9999 VCSH SCT016 BKN070 OVC240 28/24 Q1010 RMK A2983 VCSH ALL QDS=